createdAt,value
2023-04-19T00:00:17.191Z,503.00
2023-04-19T00:01:17.188Z,503.00
2023-04-19T00:02:17.314Z,504.00
2023-04-19T00:03:17.376Z,504.00
2023-04-19T00:04:17.570Z,502.00
2023-04-19T00:05:17.238Z,502.00
2023-04-19T00:06:17.193Z,502.00
2023-04-19T00:07:17.228Z,502.00
2023-04-19T00:08:17.208Z,501.00
2023-04-19T00:09:17.207Z,500.00
2023-04-19T00:10:17.199Z,498.00
2023-04-19T00:11:17.200Z,498.00
2023-04-19T00:12:17.329Z,497.00
2023-04-19T00:13:17.225Z,497.00
2023-04-19T00:14:17.422Z,496.00
2023-04-19T00:15:17.195Z,495.00
2023-04-19T00:16:17.225Z,496.00
2023-04-19T00:17:17.194Z,495.00
2023-04-19T00:18:17.196Z,496.00
2023-04-19T00:19:17.217Z,498.00
2023-04-19T00:20:17.200Z,498.00
2023-04-19T00:21:17.190Z,498.00
2023-04-19T00:22:17.228Z,499.00
2023-04-19T00:23:17.189Z,498.00
2023-04-19T00:24:17.183Z,499.00
2023-04-19T00:25:17.189Z,500.00
2023-04-19T00:26:17.191Z,500.00
2023-04-19T00:27:17.192Z,499.00
2023-04-19T00:28:17.186Z,496.00
2023-04-19T00:29:17.212Z,494.00
2023-04-19T00:30:17.196Z,494.00
2023-04-19T00:31:17.216Z,493.00
2023-04-19T00:32:17.197Z,493.00
2023-04-19T00:33:17.202Z,493.00
2023-04-19T00:34:17.274Z,492.00
2023-04-19T00:35:17.227Z,490.00
2023-04-19T00:36:17.245Z,490.00
2023-04-19T00:37:17.263Z,491.00
2023-04-19T00:38:17.274Z,492.00
2023-04-19T00:39:17.290Z,495.00
2023-04-19T00:40:17.300Z,493.00
2023-04-19T00:41:17.319Z,493.00
2023-04-19T00:42:17.325Z,495.00
2023-04-19T00:43:17.353Z,494.00
2023-04-19T00:44:17.516Z,495.00
2023-04-19T00:45:17.382Z,495.00
2023-04-19T00:46:17.430Z,493.00
2023-04-19T00:47:17.385Z,491.00
2023-04-19T00:48:17.398Z,491.00
2023-04-19T00:49:17.406Z,490.00
2023-04-19T00:50:17.438Z,494.00
2023-04-19T00:51:17.428Z,494.00
2023-04-19T00:52:17.535Z,492.00
2023-04-19T00:53:17.455Z,492.00
2023-04-19T00:54:17.625Z,491.00
2023-04-19T00:55:17.475Z,491.00
2023-04-19T00:56:17.470Z,489.00
2023-04-19T00:57:17.485Z,489.00
2023-04-19T00:58:17.568Z,489.00
2023-04-19T00:59:17.506Z,487.00
2023-04-19T01:00:17.508Z,488.00
2023-04-19T01:01:17.568Z,490.00
2023-04-19T01:02:17.712Z,492.00
2023-04-19T01:03:17.703Z,493.00
2023-04-19T01:04:17.758Z,490.00
2023-04-19T01:05:17.553Z,488.00
2023-04-19T01:06:17.556Z,488.00
2023-04-19T01:07:17.561Z,487.00
2023-04-19T01:08:17.572Z,488.00
2023-04-19T01:09:17.580Z,486.00
2023-04-19T01:10:17.584Z,485.00
2023-04-19T01:11:17.590Z,487.00
2023-04-19T01:12:17.705Z,485.00
2023-04-19T01:13:17.627Z,485.00
2023-04-19T01:14:17.820Z,484.00
2023-04-19T01:15:17.647Z,486.00
2023-04-19T01:16:17.683Z,487.00
2023-04-19T01:17:17.702Z,488.00
2023-04-19T01:18:17.694Z,488.00
2023-04-19T01:19:17.709Z,487.00
2023-04-19T01:20:17.706Z,486.00
2023-04-19T01:21:17.724Z,486.00
2023-04-19T01:22:18.112Z,486.00
2023-04-19T01:23:18.117Z,483.00
2023-04-19T01:24:18.159Z,484.00
2023-04-19T01:25:18.167Z,485.00
2023-04-19T01:26:18.178Z,485.00
2023-04-19T01:27:18.171Z,487.00
2023-04-19T01:28:18.160Z,486.00
2023-04-19T01:29:18.157Z,488.00
2023-04-19T01:30:18.157Z,488.00
2023-04-19T01:31:18.210Z,489.00
2023-04-19T01:32:18.159Z,488.00
2023-04-19T01:33:18.200Z,486.00
2023-04-19T01:34:18.857Z,485.00
2023-04-19T01:35:18.160Z,485.00
2023-04-19T01:36:18.167Z,485.00
2023-04-19T01:37:18.162Z,485.00
2023-04-19T01:38:18.176Z,482.00
2023-04-19T01:39:18.162Z,481.00
2023-04-19T01:40:18.163Z,479.00
2023-04-19T01:41:18.163Z,481.00
2023-04-19T01:42:18.169Z,483.00
2023-04-19T01:43:18.179Z,483.00
2023-04-19T01:44:18.166Z,484.00
2023-04-19T01:45:18.166Z,485.00
2023-04-19T01:46:18.194Z,486.00
2023-04-19T01:47:20.857Z,485.00
2023-04-19T01:48:18.189Z,486.00
2023-04-19T01:49:18.196Z,487.00
2023-04-19T01:50:18.172Z,486.00
2023-04-19T01:51:18.180Z,484.00
2023-04-19T01:52:18.168Z,487.00
2023-04-19T01:53:18.184Z,487.00
2023-04-19T01:54:18.298Z,488.00
2023-04-19T01:55:18.176Z,489.00
2023-04-19T01:56:18.182Z,489.00
2023-04-19T01:57:18.172Z,489.00
2023-04-19T01:58:18.184Z,489.00
2023-04-19T01:59:18.181Z,488.00
2023-04-19T02:00:18.176Z,488.00
2023-04-19T02:01:18.208Z,489.00
2023-04-19T02:02:18.230Z,491.00
2023-04-19T02:03:18.374Z,490.00
2023-04-19T02:04:18.416Z,490.00
2023-04-19T02:05:18.137Z,488.00
2023-04-19T02:06:17.757Z,486.00
2023-04-19T02:07:17.750Z,485.00
2023-04-19T02:08:17.727Z,484.00
2023-04-19T02:09:17.734Z,484.00
2023-04-19T02:10:17.709Z,483.00
2023-04-19T02:11:17.683Z,481.00
2023-04-19T02:12:17.673Z,484.00
2023-04-19T02:13:17.658Z,484.00
2023-04-19T02:14:17.798Z,483.00
2023-04-19T02:15:17.631Z,482.00
2023-04-19T02:16:17.667Z,480.00
2023-04-19T02:17:17.627Z,479.00
2023-04-19T02:18:17.633Z,476.00
2023-04-19T02:19:18.371Z,474.00
2023-04-19T02:20:17.615Z,476.00
2023-04-19T02:21:17.619Z,477.00
2023-04-19T02:22:17.595Z,477.00
2023-04-19T02:23:17.582Z,478.00
2023-04-19T02:24:17.853Z,477.00
2023-04-19T02:25:18.382Z,478.00
2023-04-19T02:26:17.584Z,478.00
2023-04-19T02:27:17.568Z,477.00
2023-04-19T02:28:17.549Z,478.00
2023-04-19T02:29:17.546Z,479.00
2023-04-19T02:30:17.544Z,481.00
2023-04-19T02:31:17.550Z,481.00
2023-04-19T02:32:17.526Z,480.00
2023-04-19T02:33:17.521Z,482.00
2023-04-19T02:34:17.931Z,484.00
2023-04-19T02:35:17.503Z,483.00
2023-04-19T02:36:17.503Z,481.00
2023-04-19T02:37:17.591Z,479.00
2023-04-19T02:38:17.494Z,478.00
2023-04-19T02:39:17.485Z,479.00
2023-04-19T02:40:17.496Z,478.00
2023-04-19T02:41:17.518Z,479.00
2023-04-19T02:42:17.523Z,477.00
2023-04-19T02:43:17.518Z,477.00
2023-04-19T02:44:17.692Z,476.00
2023-04-19T02:45:17.547Z,477.00
2023-04-19T02:46:17.612Z,476.00
2023-04-19T02:47:17.559Z,476.00
2023-04-19T02:48:17.575Z,477.00
2023-04-19T02:49:17.590Z,480.00
2023-04-19T02:50:18.211Z,480.00
2023-04-19T02:51:17.612Z,480.00
2023-04-19T02:52:17.629Z,481.00
2023-04-19T02:53:17.659Z,478.00
2023-04-19T02:54:17.787Z,476.00
2023-04-19T02:55:17.641Z,476.00
2023-04-19T02:56:17.638Z,479.00
2023-04-19T02:57:17.641Z,480.00
2023-04-19T02:58:17.643Z,480.00
2023-04-19T02:59:17.654Z,479.00
2023-04-19T03:00:17.661Z,478.00
2023-04-19T03:01:17.709Z,478.00
2023-04-19T03:02:17.728Z,476.00
2023-04-19T03:03:17.758Z,478.00
2023-04-19T03:04:18.063Z,480.00
2023-04-19T03:05:17.723Z,480.00
2023-04-19T03:06:18.226Z,483.00
2023-04-19T03:07:17.735Z,483.00
2023-04-19T03:08:17.746Z,484.00
2023-04-19T03:09:18.187Z,482.00
2023-04-19T03:10:17.760Z,483.00
2023-04-19T03:11:17.767Z,481.00
2023-04-19T03:12:17.781Z,481.00
2023-04-19T03:13:17.799Z,479.00
2023-04-19T03:14:18.229Z,481.00
2023-04-19T03:15:18.230Z,480.00
2023-04-19T03:16:18.278Z,481.00
2023-04-19T03:17:18.275Z,481.00
2023-04-19T03:18:18.219Z,478.00
2023-04-19T03:19:18.214Z,476.00
2023-04-19T03:20:18.237Z,477.00
2023-04-19T03:21:18.213Z,479.00
2023-04-19T03:22:18.229Z,478.00
2023-04-19T03:23:18.216Z,475.00
2023-04-19T03:24:18.237Z,475.00
2023-04-19T03:25:18.233Z,475.00
2023-04-19T03:26:18.235Z,474.00
2023-04-19T03:27:18.227Z,475.00
2023-04-19T03:28:18.213Z,474.00
2023-04-19T03:29:18.215Z,474.00
2023-04-19T03:30:18.211Z,475.00
2023-04-19T03:31:18.275Z,476.00
2023-04-19T03:32:18.241Z,476.00
2023-04-19T03:33:18.218Z,476.00
2023-04-19T03:34:18.240Z,475.00
2023-04-19T03:35:18.219Z,477.00
2023-04-19T03:36:18.216Z,479.00
2023-04-19T03:37:18.219Z,479.00
2023-04-19T03:38:18.217Z,480.00
2023-04-19T03:39:18.226Z,478.00
2023-04-19T03:40:18.221Z,476.00
2023-04-19T03:41:18.249Z,476.00
2023-04-19T03:42:18.222Z,476.00
2023-04-19T03:43:18.220Z,474.00
2023-04-19T03:44:18.459Z,474.00
2023-04-19T03:45:18.274Z,472.00
2023-04-19T03:46:18.318Z,472.00
2023-04-19T03:47:18.230Z,471.00
2023-04-19T03:48:18.218Z,469.00
2023-04-19T03:49:18.224Z,468.00
2023-04-19T03:50:18.220Z,468.00
2023-04-19T03:51:18.222Z,467.00
2023-04-19T03:52:18.227Z,469.00
2023-04-19T03:53:18.221Z,469.00
2023-04-19T03:54:18.263Z,472.00
2023-04-19T03:55:18.247Z,473.00
2023-04-19T03:56:18.238Z,472.00
2023-04-19T03:57:18.279Z,469.00
2023-04-19T03:58:18.265Z,470.00
2023-04-19T03:59:18.282Z,473.00
2023-04-19T04:00:18.346Z,473.00
2023-04-19T04:01:18.292Z,473.00
2023-04-19T04:02:18.423Z,476.00
2023-04-19T04:03:19.046Z,474.00
2023-04-19T04:04:18.722Z,473.00
2023-04-19T04:05:18.459Z,473.00
2023-04-19T04:06:18.349Z,473.00
2023-04-19T04:07:18.400Z,474.00
2023-04-19T04:08:18.346Z,473.00
2023-04-19T04:09:18.359Z,471.00
2023-04-19T04:10:18.368Z,471.00
2023-04-19T04:11:18.397Z,468.00
2023-04-19T04:12:18.393Z,468.00
2023-04-19T04:13:18.436Z,469.00
2023-04-19T04:14:18.416Z,469.00
2023-04-19T04:15:18.422Z,468.00
2023-04-19T04:16:18.444Z,467.00
2023-04-19T04:17:18.448Z,469.00
2023-04-19T04:18:18.449Z,470.00
2023-04-19T04:19:18.453Z,470.00
2023-04-19T04:20:18.498Z,472.00
2023-04-19T04:21:18.471Z,474.00
2023-04-19T04:22:18.494Z,476.00
2023-04-19T04:23:18.499Z,475.00
2023-04-19T04:24:18.525Z,473.00
2023-04-19T04:25:19.981Z,472.00
2023-04-19T04:26:18.517Z,474.00
2023-04-19T04:27:18.516Z,473.00
2023-04-19T04:28:18.502Z,472.00
2023-04-19T04:29:18.525Z,470.00
2023-04-19T04:30:18.509Z,469.00
2023-04-19T04:31:18.583Z,468.00
2023-04-19T04:32:18.484Z,468.00
2023-04-19T04:33:18.480Z,468.00
2023-04-19T04:34:18.532Z,467.00
2023-04-19T04:35:18.459Z,464.00
2023-04-19T04:36:18.445Z,464.00
2023-04-19T04:37:18.430Z,463.00
2023-04-19T04:38:24.556Z,464.00
2023-04-19T04:39:18.403Z,464.00
2023-04-19T04:40:18.385Z,464.00
2023-04-19T04:41:18.365Z,465.00
2023-04-19T04:42:18.433Z,464.00
2023-04-19T04:43:18.921Z,469.00
2023-04-19T04:44:18.325Z,469.00
2023-04-19T04:45:18.557Z,470.00
2023-04-19T04:46:18.393Z,471.00
2023-04-19T04:47:18.292Z,471.00
2023-04-19T04:48:18.273Z,470.00
2023-04-19T04:49:18.285Z,470.00
2023-04-19T04:50:18.280Z,468.00
2023-04-19T04:51:18.277Z,468.00
2023-04-19T04:52:18.271Z,469.00
2023-04-19T04:53:18.278Z,468.00
2023-04-19T04:54:18.282Z,467.00
2023-04-19T04:55:18.278Z,469.00
2023-04-19T04:56:18.313Z,471.00
2023-04-19T04:57:18.283Z,468.00
2023-04-19T04:58:20.345Z,469.00
2023-04-19T04:59:18.288Z,470.00
2023-04-19T05:00:18.935Z,470.00
2023-04-19T05:01:18.382Z,468.00
2023-04-19T05:02:18.402Z,469.00
2023-04-19T05:03:18.329Z,466.00
2023-04-19T05:04:18.588Z,467.00
2023-04-19T05:05:18.277Z,467.00
2023-04-19T05:06:18.294Z,470.00
2023-04-19T05:07:18.294Z,471.00
2023-04-19T05:08:18.295Z,472.00
2023-04-19T05:09:18.288Z,471.00
2023-04-19T05:10:18.280Z,472.00
2023-04-19T05:11:18.290Z,472.00
2023-04-19T05:12:18.306Z,472.00
2023-04-19T05:13:18.283Z,473.00
2023-04-19T05:14:18.240Z,473.00
2023-04-19T05:15:17.868Z,472.00
2023-04-19T05:16:17.936Z,473.00
2023-04-19T05:17:17.888Z,473.00
2023-04-19T05:18:17.826Z,471.00
2023-04-19T05:19:17.812Z,472.00
2023-04-19T05:20:17.807Z,472.00
2023-04-19T05:21:17.799Z,473.00
2023-04-19T05:22:17.790Z,473.00
2023-04-19T05:23:17.769Z,473.00
2023-04-19T05:24:17.942Z,474.00
2023-04-19T05:25:17.742Z,473.00
2023-04-19T05:26:17.796Z,473.00
2023-04-19T05:27:17.733Z,474.00
2023-04-19T05:28:17.748Z,474.00
2023-04-19T05:29:17.696Z,474.00
2023-04-19T05:30:17.682Z,473.00
2023-04-19T05:31:17.747Z,474.00
2023-04-19T05:32:17.690Z,477.00
2023-04-19T05:33:17.708Z,478.00
2023-04-19T05:34:19.761Z,477.00
2023-04-19T05:35:18.300Z,476.00
2023-04-19T05:36:17.682Z,477.00
2023-04-19T05:37:17.658Z,476.00
2023-04-19T05:38:17.647Z,476.00
2023-04-19T05:39:17.643Z,472.00
2023-04-19T05:40:17.681Z,471.00
2023-04-19T05:41:17.624Z,468.00
2023-04-19T05:42:17.603Z,466.00
2023-04-19T05:43:17.611Z,465.00
2023-04-19T05:44:17.791Z,465.00
2023-04-19T05:45:18.316Z,467.00
2023-04-19T05:46:17.678Z,468.00
2023-04-19T05:47:18.322Z,469.00
2023-04-19T05:48:17.577Z,469.00
2023-04-19T05:49:17.576Z,470.00
2023-04-19T05:50:17.553Z,474.00
2023-04-19T05:51:17.561Z,474.00
2023-04-19T05:52:18.341Z,473.00
2023-04-19T05:53:18.319Z,472.00
2023-04-19T05:54:17.906Z,470.00
2023-04-19T05:55:17.636Z,470.00
2023-04-19T05:56:17.641Z,470.00
2023-04-19T05:57:17.626Z,469.00
2023-04-19T05:58:19.338Z,469.00
2023-04-19T05:59:18.403Z,469.00
2023-04-19T06:00:18.360Z,472.00
2023-04-19T06:01:18.143Z,473.00
2023-04-19T06:02:18.042Z,473.00
2023-04-19T06:03:18.147Z,478.00
2023-04-19T06:04:18.433Z,481.00
2023-04-19T06:05:18.023Z,488.00
2023-04-19T06:06:18.124Z,492.00
2023-04-19T06:07:30.941Z,494.00
2023-04-19T06:08:17.999Z,495.00
2023-04-19T06:09:17.948Z,498.00
2023-04-19T06:10:17.912Z,502.00
2023-04-19T06:11:26.570Z,507.00
2023-04-19T06:12:17.894Z,511.00
2023-04-19T06:13:17.962Z,514.00
2023-04-19T06:14:18.512Z,516.00
2023-04-19T06:15:17.867Z,518.00
2023-04-19T06:16:17.936Z,573.00
2023-04-19T06:17:17.879Z,551.00
2023-04-19T06:18:19.385Z,547.00
2023-04-19T06:19:17.987Z,547.00
2023-04-19T06:20:17.834Z,552.00
2023-04-19T06:21:17.839Z,554.00
2023-04-19T06:22:17.834Z,557.00
2023-04-19T06:23:19.807Z,560.00
2023-04-19T06:24:17.835Z,562.00
2023-04-19T06:25:17.999Z,561.00
2023-04-19T06:26:18.759Z,563.00
2023-04-19T06:27:17.730Z,563.00
2023-04-19T06:28:17.760Z,566.00
2023-04-19T06:29:17.814Z,571.00
2023-04-19T06:30:17.996Z,570.00
2023-04-19T06:31:17.817Z,573.00
2023-04-19T06:32:17.734Z,576.00
2023-04-19T06:33:17.683Z,578.00
2023-04-19T06:34:18.210Z,579.00
2023-04-19T06:35:17.650Z,582.00
2023-04-19T06:36:17.635Z,584.00
2023-04-19T06:37:17.660Z,586.00
2023-04-19T06:38:17.618Z,584.00
2023-04-19T06:39:18.026Z,584.00
2023-04-19T06:40:17.690Z,587.00
2023-04-19T06:41:17.581Z,593.00
2023-04-19T06:42:17.560Z,594.00
2023-04-19T06:43:18.142Z,597.00
2023-04-19T06:44:17.821Z,600.00
2023-04-19T06:45:18.010Z,601.00
2023-04-19T06:46:17.581Z,603.00
2023-04-19T06:47:17.527Z,605.00
2023-04-19T06:48:17.517Z,610.00
2023-04-19T06:49:17.491Z,612.00
2023-04-19T06:50:17.522Z,611.00
2023-04-19T06:51:17.499Z,616.00
2023-04-19T06:52:17.984Z,620.00
2023-04-19T06:53:17.499Z,620.00
2023-04-19T06:54:17.929Z,623.00
2023-04-19T06:55:17.548Z,625.00
2023-04-19T06:56:17.445Z,629.00
2023-04-19T06:57:17.449Z,630.00
2023-04-19T06:58:17.478Z,629.00
2023-04-19T06:59:17.545Z,628.00
2023-04-19T07:00:17.984Z,628.00
2023-04-19T07:01:17.527Z,631.00
2023-04-19T07:02:17.558Z,631.00
2023-04-19T07:03:17.655Z,634.00
2023-04-19T07:04:17.977Z,631.00
2023-04-19T07:05:17.478Z,628.00
2023-04-19T07:06:20.487Z,629.00
2023-04-19T07:07:17.722Z,627.00
2023-04-19T07:08:18.008Z,626.00
2023-04-19T07:09:17.915Z,629.00
2023-04-19T07:10:17.427Z,628.00
2023-04-19T07:11:17.515Z,627.00
2023-04-19T07:12:17.472Z,627.00
2023-04-19T07:13:17.413Z,629.00
2023-04-19T07:14:17.541Z,630.00
2023-04-19T07:15:17.376Z,632.00
2023-04-19T07:16:17.561Z,633.00
2023-04-19T07:17:17.363Z,632.00
2023-04-19T07:18:17.352Z,629.00
2023-04-19T07:19:17.364Z,632.00
2023-04-19T07:20:17.939Z,630.00
2023-04-19T07:21:17.949Z,629.00
2023-04-19T07:22:17.370Z,629.00
2023-04-19T07:23:17.504Z,626.00
2023-04-19T07:24:17.682Z,626.00
2023-04-19T07:25:17.478Z,627.00
2023-04-19T07:26:17.361Z,627.00
2023-04-19T07:27:17.361Z,627.00
2023-04-19T07:28:17.486Z,629.00
2023-04-19T07:29:17.389Z,629.00
2023-04-19T07:30:17.355Z,627.00
2023-04-19T07:31:17.367Z,628.00
2023-04-19T07:32:17.519Z,625.00
2023-04-19T07:33:17.435Z,622.00
2023-04-19T07:34:18.571Z,624.00
2023-04-19T07:35:17.363Z,622.00
2023-04-19T07:36:17.547Z,621.00
2023-04-19T07:37:18.376Z,622.00
2023-04-19T07:38:17.365Z,620.00
2023-04-19T07:39:17.521Z,618.00
2023-04-19T07:40:17.394Z,619.00
2023-04-19T07:41:17.414Z,620.00
2023-04-19T07:42:17.774Z,620.00
2023-04-19T07:43:17.380Z,620.00
2023-04-19T07:44:17.831Z,619.00
2023-04-19T07:45:17.373Z,620.00
2023-04-19T07:46:17.432Z,621.00
2023-04-19T07:47:17.386Z,621.00
2023-04-19T07:48:17.400Z,624.00
2023-04-19T07:49:17.491Z,625.00
2023-04-19T07:50:17.503Z,626.00
2023-04-19T07:51:17.375Z,626.00
2023-04-19T07:52:17.422Z,626.00
2023-04-19T07:53:17.372Z,625.00
2023-04-19T07:54:17.578Z,626.00
2023-04-19T07:55:17.523Z,624.00
2023-04-19T07:56:18.381Z,623.00
2023-04-19T07:57:17.796Z,621.00
2023-04-19T07:58:17.377Z,619.00
2023-04-19T07:59:18.002Z,618.00
2023-04-19T08:00:17.390Z,622.00
2023-04-19T08:01:17.431Z,623.00
2023-04-19T08:02:18.704Z,626.00
2023-04-19T08:03:17.576Z,625.00
2023-04-19T08:04:18.020Z,624.00
2023-04-19T08:05:17.807Z,623.00
2023-04-19T08:06:17.505Z,620.00
2023-04-19T08:07:17.511Z,618.00
2023-04-19T08:08:17.376Z,619.00
2023-04-19T08:09:17.390Z,617.00
2023-04-19T08:10:17.402Z,617.00
2023-04-19T08:11:17.419Z,616.00
2023-04-19T08:12:33.042Z,615.00
2023-04-19T08:13:17.408Z,618.00
2023-04-19T08:14:32.084Z,619.00
2023-04-19T08:15:52.331Z,616.00
2023-04-19T08:16:36.859Z,616.00
2023-04-19T08:17:23.912Z,619.00
2023-04-19T08:18:17.447Z,619.00
2023-04-19T08:19:17.384Z,617.00
2023-04-19T08:20:17.394Z,616.00
2023-04-19T08:21:17.398Z,617.00
2023-04-19T08:22:17.391Z,620.00
2023-04-19T08:23:24.516Z,620.00
2023-04-19T08:24:20.008Z,619.00
2023-04-19T08:25:17.510Z,618.00
2023-04-19T08:26:20.011Z,617.00
2023-04-19T08:27:17.515Z,617.00
2023-04-19T08:28:17.352Z,621.00
2023-04-19T08:29:17.709Z,622.00
2023-04-19T08:30:17.401Z,621.00
2023-04-19T08:31:17.037Z,622.00
2023-04-19T08:32:17.025Z,622.00
2023-04-19T08:33:17.011Z,621.00
2023-04-19T08:34:16.928Z,620.00
2023-04-19T08:35:17.406Z,618.00
2023-04-19T08:36:19.508Z,624.00
2023-04-19T08:37:17.884Z,624.00
2023-04-19T08:38:16.883Z,622.00
2023-04-19T08:39:29.246Z,622.00
2023-04-19T08:40:17.433Z,616.00
2023-04-19T08:41:16.827Z,616.00
2023-04-19T08:42:28.752Z,615.00
2023-04-19T08:43:17.416Z,616.00
2023-04-19T08:44:25.340Z,615.00
2023-04-19T08:45:27.854Z,612.00
2023-04-19T08:46:16.825Z,611.00
2023-04-19T08:47:27.271Z,610.00
2023-04-19T08:48:16.818Z,609.00
2023-04-19T08:49:16.941Z,610.00
2023-04-19T08:50:31.242Z,612.00
2023-04-19T08:51:19.528Z,613.00
2023-04-19T08:52:16.644Z,614.00
2023-04-19T08:53:25.647Z,616.00
2023-04-19T08:54:16.629Z,616.00
2023-04-19T08:55:17.414Z,616.00
2023-04-19T08:57:34.454Z,592.00
2023-04-19T08:58:52.101Z,602.00
2023-04-19T08:59:35.489Z,604.00
2023-04-19T09:00:35.670Z,605.00
2023-04-19T09:01:36.614Z,606.00
2023-04-19T09:02:36.050Z,606.00
2023-04-19T09:03:44.207Z,607.00
2023-04-19T09:04:37.376Z,610.00
2023-04-19T09:05:36.068Z,610.00
2023-04-19T09:06:35.759Z,609.00
2023-04-19T09:07:35.680Z,609.00
2023-04-19T09:08:35.430Z,609.00
2023-04-19T09:09:42.983Z,611.00
2023-04-19T09:10:35.416Z,610.00
2023-04-19T09:11:36.151Z,610.00
2023-04-19T09:12:35.644Z,609.00
2023-04-19T09:13:35.420Z,609.00
2023-04-19T09:14:35.418Z,610.00
2023-04-19T09:15:35.505Z,610.00
2023-04-19T09:16:35.459Z,609.00
2023-04-19T09:17:35.447Z,612.00
2023-04-19T09:18:39.983Z,612.00
2023-04-19T09:19:35.418Z,613.00
2023-04-19T09:20:35.654Z,611.00
2023-04-19T09:21:35.422Z,612.00
2023-04-19T09:22:35.429Z,616.00
2023-04-19T09:23:35.429Z,616.00
2023-04-19T09:24:57.281Z,616.00
2023-04-19T09:25:52.869Z,616.00
2023-04-19T09:26:35.448Z,616.00
2023-04-19T09:27:35.447Z,619.00
2023-04-19T09:28:35.445Z,619.00
2023-04-19T09:29:35.427Z,621.00
2023-04-19T09:30:43.409Z,622.00
2023-04-19T09:31:50.625Z,621.00
2023-04-19T09:32:35.564Z,621.00
2023-04-19T09:33:35.516Z,620.00
2023-04-19T09:34:35.120Z,620.00
2023-04-19T09:35:35.165Z,620.00
2023-04-19T09:36:35.179Z,620.00
2023-04-19T09:38:34.530Z,621.00
2023-04-19T09:39:35.067Z,620.00
2023-04-19T09:40:35.089Z,620.00
2023-04-19T09:41:36.873Z,620.00
2023-04-19T09:42:54.543Z,620.00
2023-04-19T09:43:53.779Z,618.00
2023-04-19T09:45:34.981Z,618.00
2023-04-19T09:46:35.219Z,618.00
2023-04-19T09:47:35.008Z,619.00
2023-04-19T09:48:35.053Z,620.00
2023-04-19T09:50:42.664Z,624.00
2023-04-19T09:51:35.147Z,622.00
2023-04-19T09:52:34.915Z,621.00
2023-04-19T09:53:35.242Z,622.00
2023-04-19T09:54:34.894Z,623.00
2023-04-19T09:55:48.981Z,622.00
2023-04-19T09:56:34.863Z,620.00
2023-04-19T09:57:34.850Z,619.00
2023-04-19T09:58:46.987Z,618.00
2023-04-19T09:59:34.835Z,618.00
2023-04-19T10:00:45.458Z,619.00
2023-04-19T10:01:34.807Z,618.00
2023-04-19T10:02:34.946Z,619.00
2023-04-19T10:03:34.971Z,619.00
2023-04-19T10:04:50.446Z,620.00
2023-04-19T10:05:35.604Z,620.00
2023-04-19T10:06:51.824Z,619.00
2023-04-19T10:07:34.886Z,618.00
2023-04-19T10:08:34.718Z,619.00
2023-04-19T10:09:40.045Z,621.00
2023-04-19T10:10:41.941Z,619.00
2023-04-19T10:11:35.197Z,621.00
2023-04-19T10:13:34.059Z,613.00
2023-04-19T10:14:34.654Z,611.00
2023-04-19T10:16:35.039Z,607.00
2023-04-19T10:17:37.703Z,607.00
2023-04-19T10:18:35.058Z,610.00
2023-04-19T10:19:34.598Z,612.00
2023-04-19T10:20:34.754Z,615.00
2023-04-19T10:21:35.462Z,613.00
2023-04-19T10:22:34.555Z,612.00
2023-04-19T10:23:34.545Z,612.00
2023-04-19T10:24:34.527Z,612.00
2023-04-19T10:25:34.662Z,613.00
2023-04-19T10:26:34.508Z,614.00
2023-04-19T10:27:34.487Z,616.00
2023-04-19T10:28:34.474Z,615.00
2023-04-19T10:29:34.467Z,614.00
2023-04-19T10:30:34.663Z,614.00
2023-04-19T10:31:34.528Z,613.00
2023-04-19T10:32:34.513Z,613.00
2023-04-19T10:33:34.538Z,612.00
2023-04-19T10:34:34.654Z,614.00
2023-04-19T10:35:34.679Z,613.00
2023-04-19T10:36:34.710Z,612.00
2023-04-19T10:37:34.730Z,610.00
2023-04-19T10:38:34.774Z,610.00
2023-04-19T10:39:34.839Z,609.00
2023-04-19T10:40:34.884Z,611.00
2023-04-19T10:41:34.924Z,609.00
2023-04-19T10:42:34.983Z,609.00
2023-04-19T10:43:35.049Z,609.00
2023-04-19T10:44:35.077Z,611.00
2023-04-19T10:45:35.131Z,614.00
2023-04-19T10:46:35.270Z,616.00
2023-04-19T10:47:35.242Z,619.00
2023-04-19T10:48:35.271Z,619.00
2023-04-19T10:49:35.312Z,617.00
2023-04-19T10:50:35.680Z,615.00
2023-04-19T10:51:35.406Z,615.00
2023-04-19T10:52:35.516Z,615.00
2023-04-19T10:53:36.181Z,616.00
2023-04-19T10:54:35.516Z,614.00
2023-04-19T10:55:35.566Z,617.00
2023-04-19T10:56:35.781Z,619.00
2023-04-19T10:57:35.656Z,620.00
2023-04-19T10:58:36.683Z,622.00
2023-04-19T10:59:35.747Z,619.00
2023-04-19T11:00:35.787Z,619.00
2023-04-19T11:01:35.891Z,619.00
2023-04-19T11:02:36.344Z,619.00
2023-04-19T11:03:36.127Z,617.00
2023-04-19T11:04:36.090Z,617.00
2023-04-19T11:05:36.049Z,617.00
2023-04-19T11:06:36.522Z,617.00
2023-04-19T11:07:36.487Z,616.00
2023-04-19T11:08:36.518Z,617.00
2023-04-19T11:09:36.512Z,616.00
2023-04-19T11:10:36.498Z,615.00
2023-04-19T11:11:36.511Z,614.00
2023-04-19T11:12:36.498Z,616.00
2023-04-19T11:13:36.489Z,617.00
2023-04-19T11:14:36.538Z,618.00
2023-04-19T11:15:36.568Z,617.00
2023-04-19T11:16:45.559Z,618.00
2023-04-19T11:17:37.239Z,617.00
2023-04-19T11:18:36.608Z,615.00
2023-04-19T11:19:36.556Z,614.00
2023-04-19T11:20:36.550Z,613.00
2023-04-19T11:21:36.543Z,613.00
2023-04-19T11:22:36.527Z,616.00
2023-04-19T11:23:36.513Z,617.00
2023-04-19T11:24:36.535Z,617.00
2023-04-19T11:25:36.494Z,614.00
2023-04-19T11:26:36.515Z,612.00
2023-04-19T11:27:36.495Z,612.00
2023-04-19T11:28:36.498Z,612.00
2023-04-19T11:29:36.514Z,613.00
2023-04-19T11:30:36.511Z,614.00
2023-04-19T11:31:36.579Z,613.00
2023-04-19T11:32:36.979Z,613.00
2023-04-19T11:33:37.184Z,611.00
2023-04-19T11:34:36.540Z,613.00
2023-04-19T11:35:36.547Z,613.00
2023-04-19T11:36:36.625Z,616.00
2023-04-19T11:37:36.747Z,617.00
2023-04-19T11:38:36.696Z,619.00
2023-04-19T11:39:36.729Z,622.00
2023-04-19T11:40:36.805Z,623.00
2023-04-19T11:41:37.695Z,622.00
2023-04-19T11:42:36.898Z,619.00
2023-04-19T11:43:36.918Z,617.00
2023-04-19T11:44:36.961Z,615.00
2023-04-19T11:45:39.531Z,615.00
2023-04-19T11:46:37.724Z,611.00
2023-04-19T11:47:37.034Z,612.00
2023-04-19T11:48:36.960Z,611.00
2023-04-19T11:49:36.948Z,611.00
2023-04-19T11:50:36.975Z,614.00
2023-04-19T11:51:36.931Z,615.00
2023-04-19T11:52:36.920Z,616.00
2023-04-19T11:53:36.925Z,617.00
2023-04-19T11:54:36.913Z,615.00
2023-04-19T11:55:36.884Z,614.00
2023-04-19T11:56:37.714Z,615.00
2023-04-19T11:57:36.894Z,613.00
2023-04-19T11:58:36.835Z,613.00
2023-04-19T11:59:37.552Z,615.00
2023-04-19T12:00:36.878Z,617.00
2023-04-19T12:01:37.524Z,618.00
2023-04-19T12:02:37.824Z,617.00
2023-04-19T12:03:37.290Z,618.00
2023-04-19T12:04:37.281Z,621.00
2023-04-19T12:05:37.143Z,622.00
2023-04-19T12:06:37.530Z,622.00
2023-04-19T12:07:37.480Z,622.00
2023-04-19T12:08:37.528Z,620.00
2023-04-19T12:09:37.526Z,621.00
2023-04-19T12:10:37.544Z,620.00
2023-04-19T12:11:37.710Z,623.00
2023-04-19T12:12:38.245Z,623.00
2023-04-19T12:13:37.548Z,623.00
2023-04-19T12:14:37.705Z,624.00
2023-04-19T12:15:37.532Z,624.00
2023-04-19T12:16:37.589Z,623.00
2023-04-19T12:17:40.074Z,622.00
2023-04-19T12:18:37.526Z,622.00
2023-04-19T12:19:37.529Z,623.00
2023-04-19T12:20:37.561Z,622.00
2023-04-19T12:21:37.533Z,622.00
2023-04-19T12:22:37.745Z,622.00
2023-04-19T12:23:37.549Z,621.00
2023-04-19T12:24:37.532Z,622.00
2023-04-19T12:25:37.543Z,621.00
2023-04-19T12:26:37.539Z,621.00
2023-04-19T12:27:37.553Z,620.00
2023-04-19T12:28:37.577Z,622.00
2023-04-19T12:29:37.534Z,623.00
2023-04-19T12:30:37.601Z,622.00
2023-04-19T12:31:38.529Z,620.00
2023-04-19T12:32:37.584Z,623.00
2023-04-19T12:33:37.531Z,623.00
2023-04-19T12:34:37.545Z,624.00